Terminal Aerodrome Forecast
Issued by NWS

Home | Current Version | Previous Version | Text Only | Print | Product List | Glossary On
Versions: 1 2 3 4 5 6 7 8 9 10 11 12 13 14 15 16 17 18 19 20 21
325
FTUS41 KLWX 231729
TAFMTN
TAF
KMTN 231729Z 2318/2418 11004KT 1SM -DZ BR BKN003 OVC025
     FM240300 21004KT 2SM -DZ BR BKN008 OVC025
     FM240600 22004KT 3SM BR OVC015
     FM240900 00000KT 3SM -DZ BR BKN010 OVC025
     FM241200 00000KT 2SM -DZ BR BKN008 OVC025
     FM241500 VRB03KT 3SM BR SCT025 OVC035=

USA.gov is the U.S. government's official web portal to all federal, state and local government web resources and services.